createdAt,value
2018-10-09T00:04:18.617Z,11.20
2018-10-09T00:09:23.772Z,11.20
2018-10-09T00:14:27.901Z,11.20
2018-10-09T00:19:32.683Z,11.20
2018-10-09T00:24:36.850Z,11.10
2018-10-09T00:29:40.946Z,11.00
2018-10-09T00:34:45.052Z,10.80
2018-10-09T00:39:49.170Z,10.60
2018-10-09T00:44:53.221Z,10.60
2018-10-09T00:49:57.260Z,10.40
2018-10-09T00:55:01.398Z,10.40
2018-10-09T01:00:06.579Z,10.50
2018-10-09T01:05:10.725Z,10.50
2018-10-09T01:10:14.884Z,10.60
2018-10-09T01:15:18.973Z,10.50
2018-10-09T01:20:31.272Z,10.50
2018-10-09T01:25:36.308Z,10.00
2018-10-09T01:30:40.581Z,10.00
2018-10-09T01:35:44.771Z,9.80
2018-10-09T01:40:48.984Z,9.80
2018-10-09T01:45:53.237Z,9.80
2018-10-09T01:50:57.291Z,9.80
2018-10-09T02:01:05.355Z,9.70
2018-10-09T02:06:10.100Z,9.70
2018-10-09T02:11:14.235Z,9.70
2018-10-09T02:16:18.447Z,9.60
2018-10-09T02:26:26.210Z,9.60
2018-10-09T02:31:30.294Z,9.60
2018-10-09T02:36:34.405Z,9.50
2018-10-09T02:41:38.574Z,9.50
2018-10-09T02:46:42.738Z,9.50
2018-10-09T02:51:46.816Z,9.40
2018-10-09T02:56:50.977Z,9.30
2018-10-09T03:01:55.186Z,9.20
2018-10-09T03:06:59.396Z,9.20
2018-10-09T03:12:03.919Z,9.10
2018-10-09T03:17:08.703Z,9.10
2018-10-09T03:22:12.772Z,9.10
2018-10-09T03:27:16.826Z,9.10
2018-10-09T03:32:20.977Z,9.10
2018-10-09T03:37:25.189Z,9.00
2018-10-09T03:42:29.365Z,8.90
2018-10-09T03:47:33.662Z,8.80
2018-10-09T03:52:37.923Z,8.70
2018-10-09T03:57:42.072Z,8.70
2018-10-09T04:02:46.193Z,8.80
2018-10-09T04:07:51.167Z,8.90
2018-10-09T04:18:01.304Z,8.80
2018-10-09T04:23:06.157Z,8.80
2018-10-09T04:28:11.431Z,8.80
2018-10-09T04:33:15.596Z,8.90
2018-10-09T04:38:20.324Z,9.00
2018-10-09T04:43:24.511Z,8.40
2018-10-09T04:48:28.768Z,8.20
2018-10-09T04:53:32.877Z,8.10
2018-10-09T04:58:36.987Z,7.90
2018-10-09T05:03:41.051Z,8.00
2018-10-09T05:08:45.056Z,8.20
2018-10-09T05:13:49.086Z,8.30
2018-10-09T05:18:53.115Z,8.50
2018-10-09T05:34:05.638Z,9.00
2018-10-09T05:39:09.751Z,9.00
2018-10-09T05:44:13.810Z,9.20
2018-10-09T05:49:17.767Z,9.10
2018-10-09T05:54:21.813Z,9.00
2018-10-09T05:59:25.895Z,9.10
2018-10-09T06:04:29.970Z,9.30
2018-10-09T06:09:34.018Z,9.40
2018-10-09T06:14:38.078Z,9.50
2018-10-09T06:19:42.264Z,9.60
2018-10-09T06:24:46.309Z,9.60
2018-10-09T06:29:50.290Z,9.70
2018-10-09T06:34:54.347Z,9.70
2018-10-09T06:39:58.307Z,9.70
2018-10-09T06:45:02.403Z,9.90
2018-10-09T06:50:06.780Z,10.00
2018-10-09T06:55:10.795Z,10.00
2018-10-09T07:00:14.916Z,10.30
2018-10-09T07:05:18.938Z,10.20
2018-10-09T07:10:23.079Z,10.50
2018-10-09T07:15:27.153Z,10.70
2018-10-09T07:20:31.257Z,10.70
2018-10-09T07:25:35.322Z,10.80
2018-10-09T07:30:39.426Z,10.80
2018-10-09T07:35:43.456Z,10.90
2018-10-09T07:40:47.492Z,10.90
2018-10-09T07:45:51.530Z,10.90
2018-10-09T07:50:55.626Z,11.00
2018-10-09T07:55:59.692Z,11.00
2018-10-09T08:01:03.728Z,11.00
2018-10-09T08:06:07.868Z,11.20
2018-10-09T08:11:11.978Z,11.00
2018-10-09T08:16:16.158Z,11.00
2018-10-09T08:21:20.277Z,11.00
2018-10-09T08:26:24.327Z,11.10
2018-10-09T08:31:28.433Z,11.10
2018-10-09T08:36:32.486Z,11.00
2018-10-09T08:41:36.542Z,10.90
2018-10-09T08:46:40.550Z,10.90
2018-10-09T08:51:44.681Z,10.80
2018-10-09T08:56:48.746Z,10.90
2018-10-09T09:01:52.746Z,11.10
2018-10-09T09:06:56.781Z,11.00
2018-10-09T09:12:00.816Z,11.20
2018-10-09T09:17:05.878Z,11.20
2018-10-09T09:22:09.997Z,11.20
2018-10-09T09:27:14.070Z,11.40
2018-10-09T09:32:18.112Z,11.70
2018-10-09T09:37:22.177Z,11.80
2018-10-09T09:42:26.213Z,11.80
2018-10-09T09:47:30.291Z,11.80
2018-10-09T09:52:34.298Z,12.00
2018-10-09T09:57:38.309Z,12.20
2018-10-09T10:02:42.405Z,12.30
2018-10-09T10:07:46.428Z,12.30
2018-10-09T10:12:50.509Z,12.50
2018-10-09T10:17:54.586Z,12.70
2018-10-09T10:22:58.697Z,12.70
2018-10-09T10:28:02.711Z,12.90
2018-10-09T10:33:06.897Z,12.90
2018-10-09T10:38:10.949Z,12.90
2018-10-09T10:43:15.047Z,13.10
2018-10-09T10:48:19.116Z,13.20
2018-10-09T10:53:23.169Z,13.50
2018-10-09T10:58:27.311Z,13.60
2018-10-09T11:03:31.392Z,13.90
2018-10-09T11:08:35.742Z,14.50
2018-10-09T11:13:39.901Z,14.80
2018-10-09T11:18:43.999Z,14.90
2018-10-09T11:23:48.110Z,15.20
2018-10-09T11:28:52.155Z,14.90
2018-10-09T11:39:31.137Z,15.10
2018-10-09T11:44:35.197Z,16.00
2018-10-09T11:49:39.357Z,16.60
2018-10-09T11:54:43.522Z,17.10
2018-10-09T11:59:47.664Z,17.60
2018-10-09T12:04:51.732Z,18.20
2018-10-09T12:09:55.879Z,19.10
2018-10-09T12:14:59.930Z,19.50
2018-10-09T12:20:04.268Z,18.80
2018-10-09T12:25:09.242Z,18.20
2018-10-09T12:30:14.053Z,18.80
2018-10-09T12:35:18.101Z,19.70
2018-10-09T12:40:22.238Z,19.90
2018-10-09T12:45:26.320Z,20.50
2018-10-09T12:50:30.424Z,21.50
2018-10-09T12:55:34.471Z,21.70
2018-10-09T13:00:38.611Z,21.80
2018-10-09T13:05:42.780Z,21.90
2018-10-09T13:10:46.852Z,21.70
2018-10-09T13:15:50.996Z,21.80
2018-10-09T13:20:55.134Z,21.10
2018-10-09T13:25:59.186Z,20.60
2018-10-09T13:31:03.302Z,20.60
2018-10-09T13:36:07.583Z,20.70
2018-10-09T13:41:11.714Z,21.00
2018-10-09T13:46:15.832Z,21.00
2018-10-09T13:51:19.924Z,21.20
2018-10-09T13:56:23.894Z,21.40
2018-10-09T14:01:27.917Z,21.00
2018-10-09T14:06:32.011Z,20.00
2018-10-09T14:11:36.206Z,20.00
2018-10-09T14:16:40.335Z,19.70
2018-10-09T14:21:44.405Z,20.10
2018-10-09T14:26:48.443Z,20.70
2018-10-09T14:31:52.463Z,21.20
2018-10-09T14:36:56.623Z,20.60
2018-10-09T14:42:00.668Z,20.70
2018-10-09T14:47:04.813Z,22.00
2018-10-09T14:52:08.893Z,22.40
2018-10-09T14:57:12.950Z,23.20
2018-10-09T15:02:17.122Z,22.60
2018-10-09T15:07:21.263Z,21.40
2018-10-09T15:12:25.432Z,20.80
2018-10-09T15:17:30.194Z,20.40
2018-10-09T15:22:34.266Z,19.90
2018-10-09T15:27:38.459Z,19.40
2018-10-09T15:32:42.533Z,19.20
2018-10-09T15:37:46.862Z,19.20
2018-10-09T15:42:50.942Z,19.50
2018-10-09T15:47:55.086Z,19.20
2018-10-09T15:52:59.915Z,18.80
2018-10-09T15:58:04.050Z,18.10
2018-10-09T16:03:08.805Z,17.80
2018-10-09T16:08:19.091Z,17.60
2018-10-09T16:13:23.239Z,17.30
2018-10-09T16:18:27.339Z,17.10
2018-10-09T16:23:31.871Z,16.80
2018-10-09T16:28:35.949Z,16.60
2018-10-09T16:33:40.129Z,16.20
2018-10-09T16:38:44.239Z,15.90
2018-10-09T16:43:48.432Z,15.60
2018-10-09T16:48:52.579Z,15.10
2018-10-09T16:53:56.731Z,14.80
2018-10-09T16:59:00.903Z,14.70
2018-10-09T17:04:05.104Z,14.60
2018-10-09T17:09:10.047Z,14.40
2018-10-09T17:14:14.285Z,14.30
2018-10-09T17:44:38.613Z,13.60
2018-10-09T17:59:50.620Z,13.20
2018-10-09T18:04:54.803Z,13.20
2018-10-09T18:09:58.966Z,13.30
2018-10-09T18:15:03.239Z,13.50
2018-10-09T18:20:07.518Z,13.60
2018-10-09T18:25:12.005Z,13.40
2018-10-09T18:30:16.316Z,13.40
2018-10-09T18:35:20.655Z,13.20
2018-10-09T18:40:24.889Z,13.00
2018-10-09T18:45:29.301Z,12.80
2018-10-09T18:50:33.559Z,12.70
2018-10-09T18:55:37.973Z,12.50
2018-10-09T19:00:42.486Z,12.40
2018-10-09T19:05:47.033Z,12.30
2018-10-09T19:10:51.437Z,12.00
2018-10-09T19:15:55.787Z,12.00
2018-10-09T19:21:00.176Z,12.00
2018-10-09T19:26:04.500Z,11.90
2018-10-09T19:31:08.838Z,11.90
2018-10-09T19:36:15.581Z,11.90
2018-10-09T19:41:20.287Z,11.70
2018-10-09T19:46:24.716Z,11.70
2018-10-09T19:51:29.215Z,11.50
2018-10-09T19:56:33.426Z,11.40
2018-10-09T20:01:37.614Z,11.30
2018-10-09T20:06:41.814Z,11.30
2018-10-09T20:11:46.163Z,11.30
2018-10-09T20:21:54.024Z,11.10
2018-10-09T20:26:58.742Z,11.00
2018-10-09T20:42:10.911Z,10.80
2018-10-09T20:47:22.870Z,10.80
2018-10-09T20:52:27.018Z,10.80
2018-10-09T20:57:31.329Z,10.80
2018-10-09T21:02:36.171Z,10.80
2018-10-09T21:07:40.669Z,10.70
2018-10-09T21:12:45.600Z,10.60
2018-10-09T21:17:50.353Z,10.50
2018-10-09T21:22:55.478Z,10.40
2018-10-09T21:28:01.832Z,10.30
2018-10-09T21:33:06.958Z,10.20
2018-10-09T21:38:11.685Z,10.30
2018-10-09T21:43:16.275Z,10.30
2018-10-09T21:48:20.873Z,10.20
2018-10-09T21:53:25.407Z,10.20
2018-10-09T21:58:29.544Z,10.20
2018-10-09T22:03:33.755Z,10.10
2018-10-09T22:08:38.071Z,10.10
2018-10-09T22:13:42.100Z,10.10
2018-10-09T22:18:46.150Z,10.00
2018-10-09T22:23:50.198Z,10.00
2018-10-09T22:28:54.937Z,9.90
2018-10-09T22:33:59.294Z,9.90
2018-10-09T22:39:04.907Z,9.90
2018-10-09T22:44:09.067Z,9.90
2018-10-09T22:49:13.021Z,9.90
2018-10-09T22:54:17.077Z,9.80
2018-10-09T22:59:21.221Z,9.70
2018-10-09T23:04:25.273Z,9.70
2018-10-09T23:09:29.318Z,9.60
2018-10-09T23:14:33.379Z,9.60
2018-10-09T23:19:37.433Z,9.50
2018-10-09T23:24:41.963Z,9.50
2018-10-09T23:29:46.016Z,9.40
2018-10-09T23:34:50.250Z,9.40
2018-10-09T23:39:54.286Z,9.40
2018-10-09T23:55:06.824Z,9.40
